sensor_id;sensor_type;location;lat;lon;timestamp;P1;durP1;ratioP1;P2;durP2;ratioP2
16998;SDS011;10211;49.476;11.010;2023-06-22T00:00:45;11.33;;;6.60;;
16998;SDS011;10211;49.476;11.010;2023-06-22T00:03:12;8.73;;;5.80;;
16998;SDS011;10211;49.476;11.010;2023-06-22T00:05:38;7.03;;;5.93;;
16998;SDS011;10211;49.476;11.010;2023-06-22T00:08:05;11.17;;;6.73;;
16998;SDS011;10211;49.476;11.010;2023-06-22T00:10:32;6.37;;;5.67;;
16998;SDS011;10211;49.476;11.010;2023-06-22T00:13:00;5.07;;;4.57;;
16998;SDS011;10211;49.476;11.010;2023-06-22T00:15:27;11.37;;;5.40;;
16998;SDS011;10211;49.476;11.010;2023-06-22T00:17:54;7.03;;;5.60;;
16998;SDS011;10211;49.476;11.010;2023-06-22T00:20:22;7.70;;;5.60;;
16998;SDS011;10211;49.476;11.010;2023-06-22T00:22:52;9.30;;;5.70;;
16998;SDS011;10211;49.476;11.010;2023-06-22T00:25:19;5.73;;;4.90;;
16998;SDS011;10211;49.476;11.010;2023-06-22T00:27:46;6.50;;;5.47;;
16998;SDS011;10211;49.476;11.010;2023-06-22T00:30:15;6.43;;;5.57;;
16998;SDS011;10211;49.476;11.010;2023-06-22T00:32:42;7.43;;;5.43;;
16998;SDS011;10211;49.476;11.010;2023-06-22T00:35:09;6.83;;;5.27;;
16998;SDS011;10211;49.476;11.010;2023-06-22T00:37:36;9.63;;;6.70;;
16998;SDS011;10211;49.476;11.010;2023-06-22T00:40:03;6.83;;;5.30;;
16998;SDS011;10211;49.476;11.010;2023-06-22T00:42:31;7.43;;;5.20;;
16998;SDS011;10211;49.476;11.010;2023-06-22T00:44:57;7.57;;;6.03;;
16998;SDS011;10211;49.476;11.010;2023-06-22T00:47:25;7.20;;;5.40;;
16998;SDS011;10211;49.476;11.010;2023-06-22T00:49:53;6.33;;;5.37;;
16998;SDS011;10211;49.476;11.010;2023-06-22T00:52:20;6.90;;;5.17;;
16998;SDS011;10211;49.476;11.010;2023-06-22T00:54:52;6.43;;;5.00;;
16998;SDS011;10211;49.476;11.010;2023-06-22T00:57:19;6.80;;;6.00;;
16998;SDS011;10211;49.476;11.010;2023-06-22T00:59:47;7.83;;;6.53;;
16998;SDS011;10211;49.476;11.010;2023-06-22T01:02:14;6.53;;;5.60;;
16998;SDS011;10211;49.476;11.010;2023-06-22T01:04:42;8.10;;;6.10;;
16998;SDS011;10211;49.476;11.010;2023-06-22T01:07:10;8.50;;;6.43;;
16998;SDS011;10211;49.476;11.010;2023-06-22T01:09:45;8.30;;;5.77;;
16998;SDS011;10211;49.476;11.010;2023-06-22T01:12:17;15.70;;;9.20;;
16998;SDS011;10211;49.476;11.010;2023-06-22T01:14:47;10.57;;;8.30;;
16998;SDS011;10211;49.476;11.010;2023-06-22T01:17:21;8.57;;;7.73;;
16998;SDS011;10211;49.476;11.010;2023-06-22T01:19:53;10.37;;;7.77;;
16998;SDS011;10211;49.476;11.010;2023-06-22T01:22:21;8.83;;;6.63;;
16998;SDS011;10211;49.476;11.010;2023-06-22T01:24:51;9.03;;;6.60;;
16998;SDS011;10211;49.476;11.010;2023-06-22T01:27:32;8.00;;;6.07;;
16998;SDS011;10211;49.476;11.010;2023-06-22T01:30:08;7.37;;;6.60;;
16998;SDS011;10211;49.476;11.010;2023-06-22T01:32:36;10.07;;;6.23;;
16998;SDS011;10211;49.476;11.010;2023-06-22T01:35:06;8.67;;;5.63;;
16998;SDS011;10211;49.476;11.010;2023-06-22T01:37:34;8.07;;;6.67;;
16998;SDS011;10211;49.476;11.010;2023-06-22T01:40:03;7.17;;;6.07;;
16998;SDS011;10211;49.476;11.010;2023-06-22T01:42:31;7.67;;;6.53;;
16998;SDS011;10211;49.476;11.010;2023-06-22T01:44:58;10.13;;;6.77;;
16998;SDS011;10211;49.476;11.010;2023-06-22T01:47:27;7.30;;;6.13;;
16998;SDS011;10211;49.476;11.010;2023-06-22T01:49:54;5.93;;;5.33;;
16998;SDS011;10211;49.476;11.010;2023-06-22T01:52:21;10.07;;;5.10;;
16998;SDS011;10211;49.476;11.010;2023-06-22T01:54:47;6.30;;;5.33;;
16998;SDS011;10211;49.476;11.010;2023-06-22T01:57:14;7.37;;;5.57;;
16998;SDS011;10211;49.476;11.010;2023-06-22T01:59:43;7.47;;;6.10;;
16998;SDS011;10211;49.476;11.010;2023-06-22T02:02:16;6.30;;;5.20;;
16998;SDS011;10211;49.476;11.010;2023-06-22T02:04:54;7.37;;;5.63;;
16998;SDS011;10211;49.476;11.010;2023-06-22T02:07:26;7.00;;;5.80;;
16998;SDS011;10211;49.476;11.010;2023-06-22T02:09:58;7.57;;;5.67;;
16998;SDS011;10211;49.476;11.010;2023-06-22T02:12:27;8.43;;;6.30;;
16998;SDS011;10211;49.476;11.010;2023-06-22T02:14:55;7.27;;;6.17;;
16998;SDS011;10211;49.476;11.010;2023-06-22T02:17:23;9.47;;;5.97;;
16998;SDS011;10211;49.476;11.010;2023-06-22T02:19:52;7.23;;;5.07;;
16998;SDS011;10211;49.476;11.010;2023-06-22T02:22:19;7.43;;;6.57;;
16998;SDS011;10211;49.476;11.010;2023-06-22T02:24:46;7.43;;;6.67;;
16998;SDS011;10211;49.476;11.010;2023-06-22T02:27:12;7.80;;;6.07;;
16998;SDS011;10211;49.476;11.010;2023-06-22T02:29:39;7.13;;;5.43;;
16998;SDS011;10211;49.476;11.010;2023-06-22T02:32:06;7.43;;;5.90;;
16998;SDS011;10211;49.476;11.010;2023-06-22T02:34:33;6.60;;;5.53;;
16998;SDS011;10211;49.476;11.010;2023-06-22T02:37:03;7.33;;;5.70;;
16998;SDS011;10211;49.476;11.010;2023-06-22T02:39:30;7.80;;;6.50;;
16998;SDS011;10211;49.476;11.010;2023-06-22T02:41:57;9.50;;;6.07;;
16998;SDS011;10211;49.476;11.010;2023-06-22T02:44:23;7.20;;;5.87;;
16998;SDS011;10211;49.476;11.010;2023-06-22T02:46:50;11.07;;;6.27;;
16998;SDS011;10211;49.476;11.010;2023-06-22T02:49:17;11.33;;;8.20;;
16998;SDS011;10211;49.476;11.010;2023-06-22T02:51:45;9.67;;;7.60;;
16998;SDS011;10211;49.476;11.010;2023-06-22T02:54:14;9.30;;;8.30;;
16998;SDS011;10211;49.476;11.010;2023-06-22T02:56:41;8.93;;;6.87;;
16998;SDS011;10211;49.476;11.010;2023-06-22T02:59:09;8.80;;;7.00;;
16998;SDS011;10211;49.476;11.010;2023-06-22T03:01:35;8.30;;;7.33;;
16998;SDS011;10211;49.476;11.010;2023-06-22T03:04:04;10.10;;;8.03;;
16998;SDS011;10211;49.476;11.010;2023-06-22T03:06:31;11.87;;;8.27;;
16998;SDS011;10211;49.476;11.010;2023-06-22T03:08:59;9.77;;;7.90;;
16998;SDS011;10211;49.476;11.010;2023-06-22T03:11:29;8.17;;;6.97;;
16998;SDS011;10211;49.476;11.010;2023-06-22T03:13:56;8.10;;;6.80;;
16998;SDS011;10211;49.476;11.010;2023-06-22T03:16:22;9.53;;;6.57;;
16998;SDS011;10211;49.476;11.010;2023-06-22T03:18:49;13.93;;;7.70;;
16998;SDS011;10211;49.476;11.010;2023-06-22T03:21:16;8.13;;;7.17;;
16998;SDS011;10211;49.476;11.010;2023-06-22T03:23:43;9.60;;;7.67;;
16998;SDS011;10211;49.476;11.010;2023-06-22T03:26:09;8.50;;;7.60;;
16998;SDS011;10211;49.476;11.010;2023-06-22T03:28:38;8.50;;;6.87;;
16998;SDS011;10211;49.476;11.010;2023-06-22T03:31:04;8.60;;;6.40;;
16998;SDS011;10211;49.476;11.010;2023-06-22T03:33:32;9.90;;;7.60;;
16998;SDS011;10211;49.476;11.010;2023-06-22T03:35:59;10.00;;;7.57;;
16998;SDS011;10211;49.476;11.010;2023-06-22T03:38:25;10.23;;;6.57;;
16998;SDS011;10211;49.476;11.010;2023-06-22T03:40:52;8.60;;;7.33;;
16998;SDS011;10211;49.476;11.010;2023-06-22T03:43:19;10.77;;;6.83;;
16998;SDS011;10211;49.476;11.010;2023-06-22T03:45:47;8.47;;;7.57;;
16998;SDS011;10211;49.476;11.010;2023-06-22T03:48:13;10.80;;;8.07;;
16998;SDS011;10211;49.476;11.010;2023-06-22T03:50:40;10.37;;;7.87;;
16998;SDS011;10211;49.476;11.010;2023-06-22T03:53:09;10.43;;;7.97;;
16998;SDS011;10211;49.476;11.010;2023-06-22T03:55:35;11.97;;;7.30;;
16998;SDS011;10211;49.476;11.010;2023-06-22T03:58:02;8.83;;;7.57;;
16998;SDS011;10211;49.476;11.010;2023-06-22T04:00:30;10.00;;;7.43;;
16998;SDS011;10211;49.476;11.010;2023-06-22T04:02:59;11.67;;;7.60;;
16998;SDS011;10211;49.476;11.010;2023-06-22T04:05:25;9.27;;;7.50;;
16998;SDS011;10211;49.476;11.010;2023-06-22T04:07:52;9.67;;;7.53;;
16998;SDS011;10211;49.476;11.010;2023-06-22T04:10:18;12.17;;;7.67;;
16998;SDS011;10211;49.476;11.010;2023-06-22T04:12:45;8.23;;;7.23;;
16998;SDS011;10211;49.476;11.010;2023-06-22T04:15:13;9.03;;;7.37;;
16998;SDS011;10211;49.476;11.010;2023-06-22T04:17:40;9.53;;;7.50;;
16998;SDS011;10211;49.476;11.010;2023-06-22T04:20:08;11.23;;;7.57;;
16998;SDS011;10211;49.476;11.010;2023-06-22T04:22:35;11.10;;;6.93;;
16998;SDS011;10211;49.476;11.010;2023-06-22T04:25:02;8.20;;;7.17;;
16998;SDS011;10211;49.476;11.010;2023-06-22T04:27:29;7.20;;;6.50;;
16998;SDS011;10211;49.476;11.010;2023-06-22T04:29:55;7.53;;;6.40;;
16998;SDS011;10211;49.476;11.010;2023-06-22T04:32:25;8.43;;;6.53;;
16998;SDS011;10211;49.476;11.010;2023-06-22T04:34:52;7.57;;;6.20;;
16998;SDS011;10211;49.476;11.010;2023-06-22T04:37:20;8.33;;;6.40;;
16998;SDS011;10211;49.476;11.010;2023-06-22T04:39:48;6.73;;;6.13;;
16998;SDS011;10211;49.476;11.010;2023-06-22T04:42:15;12.00;;;6.50;;
16998;SDS011;10211;49.476;11.010;2023-06-22T04:44:41;10.70;;;6.33;;
16998;SDS011;10211;49.476;11.010;2023-06-22T04:47:08;7.17;;;5.70;;
16998;SDS011;10211;49.476;11.010;2023-06-22T04:49:35;6.23;;;5.30;;
16998;SDS011;10211;49.476;11.010;2023-06-22T04:52:03;7.37;;;5.97;;
16998;SDS011;10211;49.476;11.010;2023-06-22T04:54:33;11.93;;;6.17;;
16998;SDS011;10211;49.476;11.010;2023-06-22T04:57:01;7.97;;;6.40;;
16998;SDS011;10211;49.476;11.010;2023-06-22T04:59:29;6.77;;;5.87;;
16998;SDS011;10211;49.476;11.010;2023-06-22T05:01:57;6.50;;;5.80;;
16998;SDS011;10211;49.476;11.010;2023-06-22T05:04:25;7.10;;;6.40;;
16998;SDS011;10211;49.476;11.010;2023-06-22T05:06:53;6.37;;;5.73;;
16998;SDS011;10211;49.476;11.010;2023-06-22T05:09:20;7.97;;;5.77;;
16998;SDS011;10211;49.476;11.010;2023-06-22T05:11:48;5.97;;;5.43;;
16998;SDS011;10211;49.476;11.010;2023-06-22T05:14:15;6.67;;;5.37;;
16998;SDS011;10211;49.476;11.010;2023-06-22T05:16:42;7.33;;;4.97;;
16998;SDS011;10211;49.476;11.010;2023-06-22T05:19:10;8.13;;;5.53;;
16998;SDS011;10211;49.476;11.010;2023-06-22T05:21:37;8.23;;;5.87;;
16998;SDS011;10211;49.476;11.010;2023-06-22T05:24:04;7.27;;;5.93;;
16998;SDS011;10211;49.476;11.010;2023-06-22T05:26:31;7.20;;;5.77;;
16998;SDS011;10211;49.476;11.010;2023-06-22T05:29:01;8.77;;;6.07;;
16998;SDS011;10211;49.476;11.010;2023-06-22T05:31:28;6.13;;;5.53;;
16998;SDS011;10211;49.476;11.010;2023-06-22T05:33:55;6.10;;;5.10;;
16998;SDS011;10211;49.476;11.010;2023-06-22T05:36:22;6.03;;;5.43;;
16998;SDS011;10211;49.476;11.010;2023-06-22T05:38:50;6.80;;;5.50;;
16998;SDS011;10211;49.476;11.010;2023-06-22T05:41:18;7.63;;;5.20;;
16998;SDS011;10211;49.476;11.010;2023-06-22T05:43:44;7.77;;;4.50;;
16998;SDS011;10211;49.476;11.010;2023-06-22T05:46:12;8.60;;;5.47;;
16998;SDS011;10211;49.476;11.010;2023-06-22T05:48:39;5.57;;;5.05;;
16998;SDS011;10211;49.476;11.010;2023-06-22T05:51:06;5.60;;;4.50;;
16998;SDS011;10211;49.476;11.010;2023-06-22T05:53:33;7.80;;;5.03;;
16998;SDS011;10211;49.476;11.010;2023-06-22T05:55:59;9.65;;;5.13;;
16998;SDS011;10211;49.476;11.010;2023-06-22T05:58:26;6.72;;;5.35;;
16998;SDS011;10211;49.476;11.010;2023-06-22T06:00:52;6.88;;;5.32;;
16998;SDS011;10211;49.476;11.010;2023-06-22T06:03:21;8.95;;;5.28;;
16998;SDS011;10211;49.476;11.010;2023-06-22T06:05:47;6.25;;;5.22;;
16998;SDS011;10211;49.476;11.010;2023-06-22T06:08:14;5.88;;;4.88;;
16998;SDS011;10211;49.476;11.010;2023-06-22T06:10:41;7.07;;;5.60;;
16998;SDS011;10211;49.476;11.010;2023-06-22T06:13:07;7.53;;;5.03;;
16998;SDS011;10211;49.476;11.010;2023-06-22T06:15:34;7.70;;;5.63;;
16998;SDS011;10211;49.476;11.010;2023-06-22T06:18:01;5.53;;;5.03;;
16998;SDS011;10211;49.476;11.010;2023-06-22T06:20:31;6.72;;;5.40;;
16998;SDS011;10211;49.476;11.010;2023-06-22T06:22:58;6.32;;;5.20;;
16998;SDS011;10211;49.476;11.010;2023-06-22T06:25:25;6.85;;;4.82;;
16998;SDS011;10211;49.476;11.010;2023-06-22T06:27:51;8.65;;;4.60;;
16998;SDS011;10211;49.476;11.010;2023-06-22T06:30:19;7.90;;;4.97;;
16998;SDS011;10211;49.476;11.010;2023-06-22T06:32:46;6.22;;;5.47;;
16998;SDS011;10211;49.476;11.010;2023-06-22T06:35:14;6.07;;;4.63;;
16998;SDS011;10211;49.476;11.010;2023-06-22T06:37:43;5.75;;;4.78;;
16998;SDS011;10211;49.476;11.010;2023-06-22T06:40:11;6.75;;;5.03;;
16998;SDS011;10211;49.476;11.010;2023-06-22T06:42:39;7.03;;;4.85;;
16998;SDS011;10211;49.476;11.010;2023-06-22T06:45:09;7.07;;;4.88;;
16998;SDS011;10211;49.476;11.010;2023-06-22T06:47:36;5.10;;;4.70;;
16998;SDS011;10211;49.476;11.010;2023-06-22T06:50:03;7.20;;;4.80;;
16998;SDS011;10211;49.476;11.010;2023-06-22T06:52:31;5.57;;;4.95;;
16998;SDS011;10211;49.476;11.010;2023-06-22T06:54:59;5.28;;;4.72;;
16998;SDS011;10211;49.476;11.010;2023-06-22T06:57:26;6.38;;;5.20;;
16998;SDS011;10211;49.476;11.010;2023-06-22T06:59:54;6.53;;;4.97;;
16998;SDS011;10211;49.476;11.010;2023-06-22T07:02:21;7.97;;;4.72;;
16998;SDS011;10211;49.476;11.010;2023-06-22T07:04:48;7.50;;;5.35;;
16998;SDS011;10211;49.476;11.010;2023-06-22T07:07:15;5.00;;;4.47;;
16998;SDS011;10211;49.476;11.010;2023-06-22T07:09:42;5.63;;;4.43;;
16998;SDS011;10211;49.476;11.010;2023-06-22T07:12:10;8.65;;;5.32;;
16998;SDS011;10211;49.476;11.010;2023-06-22T07:14:37;7.57;;;5.18;;
16998;SDS011;10211;49.476;11.010;2023-06-22T07:17:03;6.80;;;4.28;;
16998;SDS011;10211;49.476;11.010;2023-06-22T07:19:30;6.05;;;4.82;;
16998;SDS011;10211;49.476;11.010;2023-06-22T07:21:58;5.60;;;4.47;;
16998;SDS011;10211;49.476;11.010;2023-06-22T07:24:25;5.65;;;4.53;;
16998;SDS011;10211;49.476;11.010;2023-06-22T07:26:52;5.22;;;4.43;;
16998;SDS011;10211;49.476;11.010;2023-06-22T07:29:20;5.63;;;4.85;;
16998;SDS011;10211;49.476;11.010;2023-06-22T07:31:47;5.95;;;5.07;;
16998;SDS011;10211;49.476;11.010;2023-06-22T07:34:16;5.53;;;4.65;;
16998;SDS011;10211;49.476;11.010;2023-06-22T07:36:43;6.03;;;4.95;;
16998;SDS011;10211;49.476;11.010;2023-06-22T07:39:09;7.75;;;5.47;;
16998;SDS011;10211;49.476;11.010;2023-06-22T07:41:38;4.63;;;4.18;;
16998;SDS011;10211;49.476;11.010;2023-06-22T07:44:05;5.72;;;4.30;;
16998;SDS011;10211;49.476;11.010;2023-06-22T07:46:33;5.10;;;3.75;;
16998;SDS011;10211;49.476;11.010;2023-06-22T07:49:00;8.63;;;4.60;;
16998;SDS011;10211;49.476;11.010;2023-06-22T07:51:27;8.18;;;4.45;;
16998;SDS011;10211;49.476;11.010;2023-06-22T07:53:54;5.43;;;3.90;;
16998;SDS011;10211;49.476;11.010;2023-06-22T07:56:20;4.50;;;4.07;;
16998;SDS011;10211;49.476;11.010;2023-06-22T07:58:47;4.25;;;3.85;;
16998;SDS011;10211;49.476;11.010;2023-06-22T08:01:14;8.70;;;3.85;;
16998;SDS011;10211;49.476;11.010;2023-06-22T08:03:43;4.80;;;4.10;;
16998;SDS011;10211;49.476;11.010;2023-06-22T08:06:09;6.15;;;4.05;;
16998;SDS011;10211;49.476;11.010;2023-06-22T08:08:36;5.53;;;4.45;;
16998;SDS011;10211;49.476;11.010;2023-06-22T08:11:03;6.32;;;4.15;;
16998;SDS011;10211;49.476;11.010;2023-06-22T08:13:30;5.43;;;3.58;;
16998;SDS011;10211;49.476;11.010;2023-06-22T08:15:57;5.45;;;3.53;;
16998;SDS011;10211;49.476;11.010;2023-06-22T08:18:24;6.55;;;3.58;;
16998;SDS011;10211;49.476;11.010;2023-06-22T08:20:52;5.10;;;3.65;;
16998;SDS011;10211;49.476;11.010;2023-06-22T08:23:19;4.53;;;3.50;;
16998;SDS011;10211;49.476;11.010;2023-06-22T08:25:45;3.53;;;2.95;;
16998;SDS011;10211;49.476;11.010;2023-06-22T08:28:13;7.82;;;3.78;;
16998;SDS011;10211;49.476;11.010;2023-06-22T08:30:40;5.40;;;3.40;;
16998;SDS011;10211;49.476;11.010;2023-06-22T08:33:06;4.60;;;3.30;;
16998;SDS011;10211;49.476;11.010;2023-06-22T08:35:33;3.42;;;3.13;;
16998;SDS011;10211;49.476;11.010;2023-06-22T08:38:01;3.95;;;3.08;;
16998;SDS011;10211;49.476;11.010;2023-06-22T08:40:28;3.72;;;3.22;;
16998;SDS011;10211;49.476;11.010;2023-06-22T08:42:55;6.65;;;3.13;;
16998;SDS011;10211;49.476;11.010;2023-06-22T08:45:21;6.40;;;3.42;;
16998;SDS011;10211;49.476;11.010;2023-06-22T08:47:48;6.93;;;3.22;;
16998;SDS011;10211;49.476;11.010;2023-06-22T08:50:15;7.93;;;3.28;;
16998;SDS011;10211;49.476;11.010;2023-06-22T08:52:41;3.63;;;3.08;;
16998;SDS011;10211;49.476;11.010;2023-06-22T08:55:10;5.97;;;3.55;;
16998;SDS011;10211;49.476;11.010;2023-06-22T08:57:36;3.35;;;2.92;;
16998;SDS011;10211;49.476;11.010;2023-06-22T09:00:05;4.97;;;2.90;;
16998;SDS011;10211;49.476;11.010;2023-06-22T09:02:40;4.85;;;2.95;;
16998;SDS011;10211;49.476;11.010;2023-06-22T09:05:07;5.15;;;3.00;;
16998;SDS011;10211;49.476;11.010;2023-06-22T09:07:34;4.13;;;3.30;;
16998;SDS011;10211;49.476;11.010;2023-06-22T09:10:01;4.43;;;3.08;;
16998;SDS011;10211;49.476;11.010;2023-06-22T09:12:31;7.57;;;3.35;;
16998;SDS011;10211;49.476;11.010;2023-06-22T09:14:58;5.35;;;2.85;;
16998;SDS011;10211;49.476;11.010;2023-06-22T09:17:26;4.70;;;3.35;;
16998;SDS011;10211;49.476;11.010;2023-06-22T09:19:53;4.60;;;2.78;;
16998;SDS011;10211;49.476;11.010;2023-06-22T09:22:20;7.70;;;3.40;;
16998;SDS011;10211;49.476;11.010;2023-06-22T09:24:46;4.15;;;2.85;;
16998;SDS011;10211;49.476;11.010;2023-06-22T09:27:13;4.07;;;3.08;;
16998;SDS011;10211;49.476;11.010;2023-06-22T09:29:41;3.25;;;2.85;;
16998;SDS011;10211;49.476;11.010;2023-06-22T09:32:08;4.88;;;3.50;;
16998;SDS011;10211;49.476;11.010;2023-06-22T09:34:35;5.28;;;3.20;;
16998;SDS011;10211;49.476;11.010;2023-06-22T09:37:01;4.65;;;3.15;;
16998;SDS011;10211;49.476;11.010;2023-06-22T09:39:28;6.03;;;2.75;;
16998;SDS011;10211;49.476;11.010;2023-06-22T09:41:55;5.30;;;3.20;;
16998;SDS011;10211;49.476;11.010;2023-06-22T09:44:23;5.15;;;2.78;;
16998;SDS011;10211;49.476;11.010;2023-06-22T09:46:51;9.88;;;3.25;;
16998;SDS011;10211;49.476;11.010;2023-06-22T09:49:18;3.88;;;2.92;;
16998;SDS011;10211;49.476;11.010;2023-06-22T09:51:45;4.57;;;2.92;;
16998;SDS011;10211;49.476;11.010;2023-06-22T09:54:12;5.75;;;3.33;;
16998;SDS011;10211;49.476;11.010;2023-06-22T09:56:38;3.40;;;2.75;;
16998;SDS011;10211;49.476;11.010;2023-06-22T09:59:05;7.70;;;4.47;;
16998;SDS011;10211;49.476;11.010;2023-06-22T10:01:32;3.80;;;2.67;;
16998;SDS011;10211;49.476;11.010;2023-06-22T10:04:00;6.80;;;3.28;;
16998;SDS011;10211;49.476;11.010;2023-06-22T10:06:27;4.03;;;2.70;;
16998;SDS011;10211;49.476;11.010;2023-06-22T10:08:54;4.63;;;3.63;;
16998;SDS011;10211;49.476;11.010;2023-06-22T10:11:21;8.13;;;3.15;;
16998;SDS011;10211;49.476;11.010;2023-06-22T10:13:52;3.80;;;3.00;;
16998;SDS011;10211;49.476;11.010;2023-06-22T10:16:18;4.20;;;2.97;;
16998;SDS011;10211;49.476;11.010;2023-06-22T10:18:45;7.15;;;2.97;;
16998;SDS011;10211;49.476;11.010;2023-06-22T10:21:13;5.50;;;3.72;;
16998;SDS011;10211;49.476;11.010;2023-06-22T10:23:41;7.88;;;2.85;;
16998;SDS011;10211;49.476;11.010;2023-06-22T10:26:07;3.45;;;2.70;;
16998;SDS011;10211;49.476;11.010;2023-06-22T10:28:34;5.43;;;4.15;;
16998;SDS011;10211;49.476;11.010;2023-06-22T10:31:01;5.50;;;3.08;;
16998;SDS011;10211;49.476;11.010;2023-06-22T10:33:27;4.93;;;3.63;;
16998;SDS011;10211;49.476;11.010;2023-06-22T10:35:54;4.68;;;3.33;;
16998;SDS011;10211;49.476;11.010;2023-06-22T10:38:22;7.63;;;3.58;;
16998;SDS011;10211;49.476;11.010;2023-06-22T10:40:49;5.75;;;3.88;;
16998;SDS011;10211;49.476;11.010;2023-06-22T10:43:16;3.90;;;3.55;;
16998;SDS011;10211;49.476;11.010;2023-06-22T10:45:42;3.90;;;3.50;;
16998;SDS011;10211;49.476;11.010;2023-06-22T10:48:09;4.18;;;3.88;;
16998;SDS011;10211;49.476;11.010;2023-06-22T10:50:36;5.25;;;3.45;;
16998;SDS011;10211;49.476;11.010;2023-06-22T10:53:02;7.80;;;3.97;;
16998;SDS011;10211;49.476;11.010;2023-06-22T10:55:30;4.10;;;3.67;;
16998;SDS011;10211;49.476;11.010;2023-06-22T10:57:57;4.55;;;4.00;;
16998;SDS011;10211;49.476;11.010;2023-06-22T11:00:24;5.65;;;3.80;;
16998;SDS011;10211;49.476;11.010;2023-06-22T11:02:50;5.50;;;3.63;;
16998;SDS011;10211;49.476;11.010;2023-06-22T11:05:17;4.75;;;3.92;;
16998;SDS011;10211;49.476;11.010;2023-06-22T11:07:44;4.68;;;3.58;;
16998;SDS011;10211;49.476;11.010;2023-06-22T11:10:11;3.95;;;3.55;;
16998;SDS011;10211;49.476;11.010;2023-06-22T11:12:39;7.88;;;3.95;;
16998;SDS011;10211;49.476;11.010;2023-06-22T11:15:08;4.80;;;3.90;;
16998;SDS011;10211;49.476;11.010;2023-06-22T11:17:35;3.80;;;3.28;;
16998;SDS011;10211;49.476;11.010;2023-06-22T11:20:02;5.18;;;3.67;;
16998;SDS011;10211;49.476;11.010;2023-06-22T11:22:35;5.30;;;3.50;;
16998;SDS011;10211;49.476;11.010;2023-06-22T11:25:02;7.45;;;3.80;;
16998;SDS011;10211;49.476;11.010;2023-06-22T11:27:29;3.97;;;3.53;;
16998;SDS011;10211;49.476;11.010;2023-06-22T11:29:57;6.88;;;3.80;;
16998;SDS011;10211;49.476;11.010;2023-06-22T11:32:24;8.52;;;3.72;;
16998;SDS011;10211;49.476;11.010;2023-06-22T11:34:51;6.25;;;3.30;;
16998;SDS011;10211;49.476;11.010;2023-06-22T11:37:17;7.05;;;3.78;;
16998;SDS011;10211;49.476;11.010;2023-06-22T11:39:44;4.18;;;3.17;;
16998;SDS011;10211;49.476;11.010;2023-06-22T11:42:11;6.57;;;3.35;;
16998;SDS011;10211;49.476;11.010;2023-06-22T11:44:37;5.63;;;3.20;;
16998;SDS011;10211;49.476;11.010;2023-06-22T11:47:06;6.22;;;3.97;;
16998;SDS011;10211;49.476;11.010;2023-06-22T11:49:32;6.72;;;3.67;;
16998;SDS011;10211;49.476;11.010;2023-06-22T11:51:59;7.90;;;3.80;;
16998;SDS011;10211;49.476;11.010;2023-06-22T11:54:26;5.65;;;3.30;;
16998;SDS011;10211;49.476;11.010;2023-06-22T11:56:52;5.82;;;3.90;;
16998;SDS011;10211;49.476;11.010;2023-06-22T11:59:19;4.13;;;3.47;;
16998;SDS011;10211;49.476;11.010;2023-06-22T12:01:47;9.70;;;3.58;;
16998;SDS011;10211;49.476;11.010;2023-06-22T12:04:16;5.43;;;3.60;;
16998;SDS011;10211;49.476;11.010;2023-06-22T12:06:43;6.25;;;3.50;;
16998;SDS011;10211;49.476;11.010;2023-06-22T12:09:10;6.55;;;3.55;;
16998;SDS011;10211;49.476;11.010;2023-06-22T12:11:38;11.25;;;3.28;;
16998;SDS011;10211;49.476;11.010;2023-06-22T12:14:05;4.88;;;3.50;;
16998;SDS011;10211;49.476;11.010;2023-06-22T12:16:32;6.30;;;3.72;;
16998;SDS011;10211;49.476;11.010;2023-06-22T12:18:58;6.57;;;4.30;;
16998;SDS011;10211;49.476;11.010;2023-06-22T12:21:26;4.50;;;3.90;;
16998;SDS011;10211;49.476;11.010;2023-06-22T12:23:54;6.32;;;3.70;;
16998;SDS011;10211;49.476;11.010;2023-06-22T12:26:21;7.55;;;3.25;;
16998;SDS011;10211;49.476;11.010;2023-06-22T12:28:47;7.72;;;3.20;;
16998;SDS011;10211;49.476;11.010;2023-06-22T12:31:14;8.32;;;3.47;;
16998;SDS011;10211;49.476;11.010;2023-06-22T12:33:41;9.63;;;3.97;;
16998;SDS011;10211;49.476;11.010;2023-06-22T12:36:08;4.80;;;3.60;;
16998;SDS011;10211;49.476;11.010;2023-06-22T12:38:36;10.82;;;3.90;;
16998;SDS011;10211;49.476;11.010;2023-06-22T12:41:02;6.20;;;3.63;;
16998;SDS011;10211;49.476;11.010;2023-06-22T12:43:29;8.38;;;3.63;;
16998;SDS011;10211;49.476;11.010;2023-06-22T12:45:56;7.45;;;3.65;;
16998;SDS011;10211;49.476;11.010;2023-06-22T12:48:22;7.68;;;3.80;;
16998;SDS011;10211;49.476;11.010;2023-06-22T12:50:50;6.60;;;4.00;;
16998;SDS011;10211;49.476;11.010;2023-06-22T12:53:17;5.53;;;3.25;;
16998;SDS011;10211;49.476;11.010;2023-06-22T12:55:45;6.95;;;3.33;;
16998;SDS011;10211;49.476;11.010;2023-06-22T12:58:12;4.55;;;3.60;;
16998;SDS011;10211;49.476;11.010;2023-06-22T13:00:39;9.95;;;4.30;;
16998;SDS011;10211;49.476;11.010;2023-06-22T13:03:05;4.40;;;3.63;;
16998;SDS011;10211;49.476;11.010;2023-06-22T13:05:32;7.95;;;3.40;;
16998;SDS011;10211;49.476;11.010;2023-06-22T13:07:59;5.65;;;3.42;;
16998;SDS011;10211;49.476;11.010;2023-06-22T13:10:26;7.90;;;4.43;;
16998;SDS011;10211;49.476;11.010;2023-06-22T13:12:54;8.98;;;4.05;;
16998;SDS011;10211;49.476;11.010;2023-06-22T13:15:25;9.85;;;3.92;;
16998;SDS011;10211;49.476;11.010;2023-06-22T13:17:52;7.68;;;3.80;;
16998;SDS011;10211;49.476;11.010;2023-06-22T13:20:19;7.13;;;3.80;;
16998;SDS011;10211;49.476;11.010;2023-06-22T13:22:46;6.05;;;3.45;;
16998;SDS011;10211;49.476;11.010;2023-06-22T13:25:12;5.57;;;4.20;;
16998;SDS011;10211;49.476;11.010;2023-06-22T13:27:44;8.57;;;3.90;;
16998;SDS011;10211;49.476;11.010;2023-06-22T13:30:12;6.05;;;3.70;;
16998;SDS011;10211;49.476;11.010;2023-06-22T13:32:39;8.18;;;4.03;;
16998;SDS011;10211;49.476;11.010;2023-06-22T13:35:07;8.32;;;4.68;;
16998;SDS011;10211;49.476;11.010;2023-06-22T13:37:34;7.53;;;3.58;;
16998;SDS011;10211;49.476;11.010;2023-06-22T13:40:00;9.68;;;3.83;;
16998;SDS011;10211;49.476;11.010;2023-06-22T13:42:30;5.43;;;3.72;;
16998;SDS011;10211;49.476;11.010;2023-06-22T13:44:56;6.03;;;3.92;;
16998;SDS011;10211;49.476;11.010;2023-06-22T13:47:25;6.78;;;3.55;;
16998;SDS011;10211;49.476;11.010;2023-06-22T13:49:51;10.80;;;4.43;;
16998;SDS011;10211;49.476;11.010;2023-06-22T13:52:18;7.97;;;3.67;;
16998;SDS011;10211;49.476;11.010;2023-06-22T13:54:44;8.30;;;3.83;;
16998;SDS011;10211;49.476;11.010;2023-06-22T13:57:11;12.20;;;3.88;;
16998;SDS011;10211;49.476;11.010;2023-06-22T13:59:38;7.25;;;3.70;;
16998;SDS011;10211;49.476;11.010;2023-06-22T14:02:05;7.55;;;3.80;;
16998;SDS011;10211;49.476;11.010;2023-06-22T14:04:33;5.78;;;3.53;;
16998;SDS011;10211;49.476;11.010;2023-06-22T14:07:00;8.07;;;4.13;;
16998;SDS011;10211;49.476;11.010;2023-06-22T14:09:27;5.28;;;3.65;;
16998;SDS011;10211;49.476;11.010;2023-06-22T14:11:54;7.95;;;3.72;;
16998;SDS011;10211;49.476;11.010;2023-06-22T14:14:21;9.05;;;3.38;;
16998;SDS011;10211;49.476;11.010;2023-06-22T14:16:47;12.77;;;4.00;;
16998;SDS011;10211;49.476;11.010;2023-06-22T14:19:16;8.77;;;3.63;;
16998;SDS011;10211;49.476;11.010;2023-06-22T14:21:44;5.47;;;3.20;;
16998;SDS011;10211;49.476;11.010;2023-06-22T14:24:11;11.48;;;4.07;;
16998;SDS011;10211;49.476;11.010;2023-06-22T14:26:38;5.05;;;3.38;;
16998;SDS011;10211;49.476;11.010;2023-06-22T14:29:04;6.40;;;3.30;;
16998;SDS011;10211;49.476;11.010;2023-06-22T14:31:31;7.22;;;3.90;;
16998;SDS011;10211;49.476;11.010;2023-06-22T14:33:58;9.00;;;4.07;;